createdAt,value
2017-11-23T00:00:47.334Z,0.2
2017-11-23T00:01:47.359Z,0.2
2017-11-23T00:02:47.346Z,0.2
2017-11-23T00:03:47.331Z,0.2
2017-11-23T00:04:47.337Z,0.2
2017-11-23T00:05:47.319Z,0.3
2017-11-23T00:06:47.332Z,0.4
2017-11-23T00:07:47.327Z,0.5
2017-11-23T00:08:47.336Z,0.6
2017-11-23T00:09:47.350Z,0.7
2017-11-23T00:10:47.334Z,0.8
2017-11-23T00:11:47.316Z,0.8
2017-11-23T00:12:47.318Z,1
2017-11-23T00:13:47.359Z,1.1
2017-11-23T00:14:47.357Z,1
2017-11-23T00:15:47.342Z,0.9
2017-11-23T00:16:47.327Z,0.8
2017-11-23T00:17:47.319Z,0.7
2017-11-23T00:18:48.003Z,0.7
2017-11-23T00:19:47.334Z,0.6
2017-11-23T00:20:47.314Z,0.5
2017-11-23T00:21:47.327Z,0.5
2017-11-23T00:22:47.347Z,0.5
2017-11-23T00:23:47.393Z,0.4
2017-11-23T00:24:47.337Z,0.4
2017-11-23T00:25:47.320Z,0.3
2017-11-23T00:26:47.319Z,0.3
2017-11-23T00:27:47.316Z,0.3
2017-11-23T00:28:47.405Z,0.2
2017-11-23T00:29:47.318Z,0.2
2017-11-23T00:30:47.311Z,0.2
2017-11-23T00:31:47.322Z,0.2
2017-11-23T00:32:47.357Z,0.2
2017-11-23T00:33:48.323Z,0.1
2017-11-23T00:34:47.315Z,0.1
2017-11-23T00:35:47.321Z,0.1
2017-11-23T00:36:47.348Z,0.1
2017-11-23T00:37:47.318Z,0.1
2017-11-23T00:38:47.373Z,0.1
2017-11-23T00:39:47.340Z,0.1
2017-11-23T00:40:47.319Z,0.1
2017-11-23T00:41:47.308Z,0.1
2017-11-23T00:42:47.312Z,0.1
2017-11-23T00:43:47.474Z,0.1
2017-11-23T00:44:47.318Z,0
2017-11-23T00:45:47.330Z,0
2017-11-23T00:46:47.309Z,0
2017-11-23T00:47:47.321Z,0
2017-11-23T00:48:47.393Z,0
2017-11-23T00:49:47.326Z,0
2017-11-23T00:50:47.311Z,0
2017-11-23T00:51:47.324Z,0
2017-11-23T00:52:47.309Z,0
2017-11-23T00:53:47.341Z,0.1
2017-11-23T00:54:47.319Z,0.1
2017-11-23T00:55:47.308Z,0.1
2017-11-23T00:56:47.320Z,0.1
2017-11-23T00:57:47.313Z,0.1
2017-11-23T00:58:47.295Z,0.1
2017-11-23T00:59:47.299Z,0.1
2017-11-23T01:00:47.283Z,0.1
2017-11-23T01:01:47.305Z,0
2017-11-23T01:02:47.311Z,0
2017-11-23T01:03:47.293Z,0
2017-11-23T01:04:47.304Z,0
2017-11-23T01:05:47.311Z,0
2017-11-23T01:06:47.311Z,0
2017-11-23T01:07:47.318Z,0
2017-11-23T01:08:47.328Z,0
2017-11-23T01:09:47.306Z,0
2017-11-23T01:10:47.289Z,0
2017-11-23T01:11:47.326Z,0
2017-11-23T01:12:47.288Z,0
2017-11-23T01:13:47.295Z,0
2017-11-23T01:14:47.315Z,0
2017-11-23T01:15:47.302Z,0
2017-11-23T01:16:47.311Z,0.1
2017-11-23T01:17:47.294Z,0.1
2017-11-23T01:18:47.300Z,0
2017-11-23T01:19:47.308Z,0.1
2017-11-23T01:20:47.286Z,0.1
2017-11-23T01:21:47.324Z,0.2
2017-11-23T01:22:47.290Z,0.3
2017-11-23T01:23:47.293Z,0.2
2017-11-23T01:24:47.294Z,0.2
2017-11-23T01:25:47.291Z,0.2
2017-11-23T01:26:47.279Z,0.2
2017-11-23T01:27:47.280Z,0.4
2017-11-23T01:28:47.305Z,0.4
2017-11-23T01:29:47.334Z,0.7
2017-11-23T01:30:47.297Z,0.7
2017-11-23T01:31:47.282Z,0.9
2017-11-23T01:32:47.276Z,1
2017-11-23T01:33:47.299Z,1.3
2017-11-23T01:34:47.338Z,1.7
2017-11-23T01:35:47.286Z,1.8
2017-11-23T01:36:47.307Z,2
2017-11-23T01:37:47.269Z,2.2
2017-11-23T01:38:47.282Z,2.3
2017-11-23T01:39:47.353Z,2.1
2017-11-23T01:40:47.276Z,2.1
2017-11-23T01:41:47.273Z,2.3
2017-11-23T01:42:47.299Z,2.3
2017-11-23T01:43:47.275Z,2.4
2017-11-23T01:44:47.347Z,2.4
2017-11-23T01:45:47.282Z,2.5
2017-11-23T01:46:47.317Z,2.5
2017-11-23T01:47:47.275Z,2.7
2017-11-23T01:48:47.279Z,2.7
2017-11-23T01:49:47.360Z,2.7
2017-11-23T01:50:47.274Z,2.6
2017-11-23T01:51:47.293Z,2.5
2017-11-23T01:52:47.309Z,2.4
2017-11-23T01:53:47.292Z,2.2
2017-11-23T01:54:47.311Z,2.1
2017-11-23T01:55:47.315Z,2
2017-11-23T01:56:47.296Z,2
2017-11-23T01:57:47.266Z,2.3
2017-11-23T01:58:47.313Z,2.1
2017-11-23T01:59:47.266Z,2
2017-11-23T02:00:47.264Z,1.9
2017-11-23T02:05:47.264Z,2.9
2017-11-23T02:06:47.293Z,2.8
2017-11-23T02:07:47.299Z,2.7
2017-11-23T02:08:47.266Z,2.8
2017-11-23T02:09:47.252Z,2.8
2017-11-23T02:10:47.273Z,2.7
2017-11-23T02:11:47.274Z,2.8
2017-11-23T02:12:47.278Z,2.8
2017-11-23T02:13:47.277Z,2.8
2017-11-23T02:14:47.275Z,2.6
2017-11-23T02:15:47.265Z,2.7
2017-11-23T02:16:47.290Z,2.7
2017-11-23T02:17:47.260Z,2.5
2017-11-23T02:18:47.290Z,2.4
2017-11-23T02:19:47.291Z,2.2
2017-11-23T02:25:09.918Z,2.4
2017-11-23T02:25:47.257Z,2
2017-11-23T02:26:47.268Z,1.9
2017-11-23T02:27:47.261Z,1.8
2017-11-23T02:28:47.255Z,1.7
2017-11-23T02:29:47.276Z,1.7
2017-11-23T02:30:47.321Z,1.6
2017-11-23T02:31:47.247Z,1.4
2017-11-23T02:32:47.269Z,1.3
2017-11-23T02:33:47.242Z,1.2
2017-11-23T02:34:47.241Z,1.1
2017-11-23T02:35:47.328Z,1.1
2017-11-23T02:36:47.271Z,1
2017-11-23T02:37:47.255Z,1.1
2017-11-23T02:38:47.270Z,1.2
2017-11-23T02:39:47.262Z,1.3
2017-11-23T02:40:47.314Z,1.4
2017-11-23T02:41:47.267Z,1.7
2017-11-23T02:42:47.277Z,1.7
2017-11-23T02:43:47.244Z,1.9
2017-11-23T02:44:47.241Z,1.8
2017-11-23T02:45:47.340Z,1.8
2017-11-23T02:46:48.212Z,1.8
2017-11-23T02:47:47.267Z,1.8
2017-11-23T02:48:47.245Z,1.7
2017-11-23T02:49:47.255Z,1.7
2017-11-23T02:50:47.326Z,1.7
2017-11-23T02:51:47.280Z,1.8
2017-11-23T02:52:47.274Z,2.1
2017-11-23T02:53:47.252Z,2.1
2017-11-23T02:54:47.266Z,2.1
2017-11-23T02:55:47.249Z,2
2017-11-23T02:56:47.283Z,2.1
2017-11-23T02:57:47.230Z,1.9
2017-11-23T02:58:47.254Z,1.8
2017-11-23T02:59:47.273Z,1.7
2017-11-23T03:00:47.263Z,1.9
2017-11-23T03:01:47.239Z,1.9
2017-11-23T03:02:47.270Z,1.7
2017-11-23T03:03:47.242Z,1.7
2017-11-23T03:04:47.246Z,1.5
2017-11-23T03:05:47.255Z,1.5
2017-11-23T03:06:47.250Z,1.5
2017-11-23T03:07:47.257Z,1.3
2017-11-23T03:08:47.243Z,1.3
2017-11-23T03:09:47.251Z,1.3
2017-11-23T03:10:47.230Z,1.3
2017-11-23T03:11:47.247Z,1.2
2017-11-23T03:12:47.259Z,1.1
2017-11-23T03:13:47.225Z,1.3
2017-11-23T03:14:47.242Z,1.3
2017-11-23T03:15:47.253Z,1.2
2017-11-23T03:16:47.257Z,1.2
2017-11-23T03:17:47.257Z,1.2
2017-11-23T03:18:47.272Z,1.4
2017-11-23T03:19:47.241Z,1.2
2017-11-23T03:20:47.264Z,1.4
2017-11-23T03:21:47.239Z,1.6
2017-11-23T03:22:47.233Z,1.6
2017-11-23T03:23:48.265Z,1.7
2017-11-23T03:24:47.249Z,1.8
2017-11-23T03:25:47.229Z,1.8
2017-11-23T03:26:47.229Z,1.7
2017-11-23T03:27:47.269Z,2
2017-11-23T03:28:47.216Z,2.2
2017-11-23T03:29:47.224Z,2.2
2017-11-23T03:30:47.228Z,2.1
2017-11-23T03:31:47.265Z,2.2
2017-11-23T03:32:47.304Z,1.9
2017-11-23T03:33:47.247Z,1.8
2017-11-23T03:34:47.250Z,1.8
2017-11-23T03:35:47.242Z,1.8
2017-11-23T03:36:47.223Z,2
2017-11-23T03:37:47.267Z,2.1
2017-11-23T03:38:47.220Z,2.2
2017-11-23T03:39:47.222Z,2.3
2017-11-23T03:40:47.249Z,2.3
2017-11-23T03:41:47.230Z,2.5
2017-11-23T03:42:47.228Z,2.4
2017-11-23T03:43:47.218Z,2.6
2017-11-23T03:44:47.245Z,2.9
2017-11-23T03:45:47.244Z,2.7
2017-11-23T03:46:47.219Z,2.7
2017-11-23T03:47:47.228Z,2.6
2017-11-23T03:48:47.227Z,2.6
2017-11-23T03:49:47.232Z,2.4
2017-11-23T03:50:47.244Z,2.3
2017-11-23T03:51:47.212Z,2.1
2017-11-23T03:52:47.237Z,2
2017-11-23T03:53:47.222Z,1.8
2017-11-23T03:54:47.214Z,2
2017-11-23T03:55:47.220Z,2.1
2017-11-23T03:56:47.285Z,2.1
2017-11-23T03:57:47.241Z,2
2017-11-23T03:58:47.238Z,1.9
2017-11-23T03:59:47.219Z,1.8
2017-11-23T04:00:47.217Z,1.8
2017-11-23T04:01:47.286Z,2.1
2017-11-23T04:02:47.249Z,2
2017-11-23T04:03:47.210Z,2
2017-11-23T04:04:47.276Z,2
2017-11-23T04:05:47.215Z,2.1
2017-11-23T04:06:47.289Z,2.4
2017-11-23T04:07:47.231Z,2.5
2017-11-23T04:08:47.212Z,2.6
2017-11-23T04:09:47.232Z,2.7
2017-11-23T04:10:47.236Z,3
2017-11-23T04:11:47.260Z,2.9
2017-11-23T04:12:47.234Z,3.5
2017-11-23T04:13:47.199Z,3.3
2017-11-23T04:14:47.217Z,3.2
2017-11-23T04:15:47.197Z,3.1
2017-11-23T04:16:47.268Z,3.1
2017-11-23T04:17:47.215Z,3.1
2017-11-23T04:18:47.216Z,3.3
2017-11-23T04:19:47.243Z,3.4
2017-11-23T04:20:47.197Z,3.6
2017-11-23T04:21:47.262Z,3.6
2017-11-23T04:22:47.195Z,3.7
2017-11-23T04:23:47.229Z,3.6
2017-11-23T04:24:47.191Z,3.6
2017-11-23T04:25:47.222Z,3.5
2017-11-23T04:26:47.292Z,3.4
2017-11-23T04:27:47.194Z,3.4
2017-11-23T04:28:47.207Z,3.4
2017-11-23T04:29:47.187Z,3.4
2017-11-23T04:30:47.202Z,3.2
2017-11-23T04:31:47.288Z,3.4
2017-11-23T04:32:47.192Z,3.2
2017-11-23T04:33:47.223Z,3.3
2017-11-23T04:34:47.221Z,3.2
2017-11-23T04:35:47.197Z,3.4
2017-11-23T04:36:47.248Z,3.7
2017-11-23T04:37:47.199Z,4.1
2017-11-23T04:38:47.252Z,4
2017-11-23T04:39:47.231Z,3.8
2017-11-23T04:40:47.190Z,3.7
2017-11-23T04:41:47.235Z,3.7
2017-11-23T04:42:47.237Z,3.7
2017-11-23T04:43:47.202Z,3.8
2017-11-23T04:44:47.191Z,3.9
2017-11-23T04:45:47.190Z,3.6
2017-11-23T04:46:47.284Z,3.5
2017-11-23T04:47:47.204Z,3.3
2017-11-23T04:48:47.197Z,3.2
2017-11-23T04:49:47.198Z,2.9
2017-11-23T04:50:47.229Z,2.8
2017-11-23T04:51:47.257Z,2.8
2017-11-23T04:52:47.199Z,2.7
2017-11-23T04:53:47.201Z,2.5
2017-11-23T04:54:47.212Z,2.3
2017-11-23T04:55:47.192Z,2.4
2017-11-23T04:56:47.248Z,3
2017-11-23T04:59:50.452Z,0.3
2017-11-23T05:00:50.408Z,0.8
2017-11-23T05:01:50.480Z,1.3
2017-11-23T05:02:50.443Z,1.4
2017-11-23T05:03:50.409Z,1.6
2017-11-23T05:04:50.414Z,1.6
2017-11-23T05:05:50.419Z,1.6
2017-11-23T05:06:50.503Z,1.5
2017-11-23T05:07:50.440Z,1.5
2017-11-23T05:08:50.428Z,1.6
2017-11-23T05:09:50.422Z,1.7
2017-11-23T05:10:50.413Z,1.7
2017-11-23T05:11:50.497Z,1.9
2017-11-23T05:12:50.403Z,2.2
2017-11-23T05:13:50.430Z,2.4
2017-11-23T05:14:50.420Z,3.2
2017-11-23T05:15:50.398Z,3.5
2017-11-23T05:16:50.453Z,3.3
2017-11-23T05:17:50.421Z,3.3
2017-11-23T05:18:50.414Z,3.1
2017-11-23T05:19:50.436Z,3
2017-11-23T05:20:50.422Z,2.8
2017-11-23T05:21:50.448Z,2.6
2017-11-23T05:22:50.412Z,2.4
2017-11-23T05:23:50.405Z,2.4
2017-11-23T05:24:50.437Z,2.4
2017-11-23T05:25:50.440Z,2.6
2017-11-23T05:26:50.442Z,2.8
2017-11-23T05:27:50.400Z,3.2
2017-11-23T05:28:50.400Z,3.4
2017-11-23T05:29:50.398Z,3.4
2017-11-23T05:30:50.432Z,3.4
2017-11-23T05:31:50.409Z,3.3
2017-11-23T05:32:50.405Z,3.1
2017-11-23T05:33:50.417Z,2.9
2017-11-23T05:34:50.404Z,2.8
2017-11-23T05:35:50.423Z,2.8
2017-11-23T05:36:50.426Z,2.8
2017-11-23T05:37:50.391Z,2.7
2017-11-23T05:38:50.417Z,2.6
2017-11-23T05:39:50.395Z,2.7
2017-11-23T05:40:50.408Z,2.6
2017-11-23T05:41:50.439Z,2.4
2017-11-23T05:42:50.416Z,2.4
2017-11-23T05:43:50.936Z,2.5
2017-11-23T05:44:50.398Z,2.5
2017-11-23T05:45:50.420Z,2.5
2017-11-23T05:46:50.414Z,2.4
2017-11-23T05:47:50.452Z,2.4
2017-11-23T05:48:50.402Z,2.1
2017-11-23T05:49:50.428Z,1.9
2017-11-23T05:50:50.380Z,1.8
2017-11-23T05:51:50.442Z,1.6
2017-11-23T05:52:50.461Z,1.4
2017-11-23T05:53:50.397Z,1.3
2017-11-23T05:54:50.402Z,1.2
2017-11-23T05:55:50.429Z,1.1
2017-11-23T05:56:50.384Z,1
2017-11-23T05:57:50.434Z,0.9
2017-11-23T05:58:50.403Z,0.8
2017-11-23T05:59:50.414Z,0.7
2017-11-23T06:00:50.412Z,0.6
2017-11-23T06:01:50.390Z,0.6
2017-11-23T06:02:50.505Z,0.5
2017-11-23T06:03:50.435Z,0.5
2017-11-23T06:04:50.407Z,0.4
2017-11-23T06:05:50.407Z,0.4
2017-11-23T06:06:50.407Z,0.4
2017-11-23T06:07:50.468Z,0.3
2017-11-23T06:08:50.372Z,0.3
2017-11-23T06:09:50.382Z,0.3
2017-11-23T06:10:50.406Z,0.2
2017-11-23T06:11:50.402Z,0.3
2017-11-23T06:12:50.472Z,0.3
2017-11-23T06:13:50.373Z,0.4
2017-11-23T06:14:50.383Z,0.5
2017-11-23T06:15:50.413Z,0.6
2017-11-23T06:16:50.446Z,0.6
2017-11-23T06:17:50.437Z,0.8
2017-11-23T06:18:50.383Z,0.8
2017-11-23T06:19:50.373Z,0.8
2017-11-23T06:20:50.403Z,1.2
2017-11-23T06:21:50.374Z,1.3
2017-11-23T06:22:50.384Z,1.3
2017-11-23T06:23:50.366Z,1.3
2017-11-23T06:24:50.407Z,1.3
2017-11-23T06:25:50.377Z,1.2
2017-11-23T06:26:50.403Z,1.2
2017-11-23T06:27:50.401Z,1.2
2017-11-23T06:28:50.384Z,1.3
2017-11-23T06:29:50.383Z,1.2
2017-11-23T06:30:50.376Z,1.1
2017-11-23T06:31:50.384Z,1
2017-11-23T06:32:50.364Z,0.9
2017-11-23T06:33:50.392Z,0.8
2017-11-23T06:34:50.410Z,0.8
2017-11-23T06:35:50.371Z,0.7
2017-11-23T06:36:50.370Z,0.6
2017-11-23T06:37:50.386Z,0.6
2017-11-23T06:38:50.402Z,0.5
2017-11-23T06:39:50.370Z,0.5
2017-11-23T06:40:50.377Z,0.4
2017-11-23T06:41:50.393Z,0.4
2017-11-23T06:42:50.391Z,0.4
2017-11-23T06:43:50.377Z,0.3
2017-11-23T06:44:50.373Z,0.3
2017-11-23T06:45:50.402Z,0.3
2017-11-23T06:46:50.397Z,0.2
2017-11-23T06:47:50.384Z,0.2
2017-11-23T06:48:50.393Z,0.3
2017-11-23T06:49:50.358Z,0.4
2017-11-23T06:50:50.364Z,0.5
2017-11-23T06:51:50.382Z,0.6
2017-11-23T06:52:50.357Z,0.6
2017-11-23T06:53:50.373Z,0.6
2017-11-23T06:54:50.384Z,0.7
2017-11-23T06:55:50.391Z,0.8
2017-11-23T06:56:50.369Z,0.8
2017-11-23T06:57:50.393Z,0.8
2017-11-23T06:58:50.392Z,0.7
2017-11-23T06:59:50.371Z,0.7
2017-11-23T07:00:50.349Z,0.7
2017-11-23T07:01:50.369Z,0.8
2017-11-23T07:02:50.406Z,0.8
2017-11-23T07:03:50.385Z,1
2017-11-23T07:04:50.373Z,1.1
2017-11-23T07:05:50.379Z,1.1
2017-11-23T07:06:50.358Z,1
2017-11-23T07:07:50.351Z,0.9
2017-11-23T07:08:50.350Z,0.8
2017-11-23T07:09:50.383Z,0.7
2017-11-23T07:10:50.391Z,0.7
2017-11-23T07:11:50.370Z,0.7
2017-11-23T07:12:50.353Z,0.6
2017-11-23T07:13:50.359Z,0.6
2017-11-23T07:14:50.386Z,0.6
2017-11-23T07:15:50.375Z,0.6
2017-11-23T07:16:50.380Z,0.5
2017-11-23T07:17:50.373Z,0.5
2017-11-23T07:18:50.360Z,0.6
2017-11-23T07:19:50.365Z,0.8
2017-11-23T07:20:50.361Z,1.1
2017-11-23T07:21:50.362Z,1.3
2017-11-23T07:22:50.380Z,1.7
2017-11-23T07:23:50.347Z,2
2017-11-23T07:24:50.378Z,2.3
2017-11-23T07:25:50.401Z,2.4
2017-11-23T07:26:50.356Z,2.6
2017-11-23T07:27:50.400Z,2.7
2017-11-23T07:28:50.363Z,3.1
2017-11-23T07:29:50.350Z,3.3
2017-11-23T07:30:50.372Z,3.6
2017-11-23T07:31:50.339Z,3.8
2017-11-23T07:32:50.376Z,4.3
2017-11-23T07:33:50.347Z,4.8
2017-11-23T07:34:50.352Z,4.8
2017-11-23T07:35:50.351Z,4.6
2017-11-23T07:36:50.350Z,4.5
2017-11-23T07:37:50.347Z,4.5
2017-11-23T07:38:50.381Z,4.4
2017-11-23T07:39:50.335Z,4.7
2017-11-23T07:40:50.364Z,4.7
2017-11-23T07:41:50.365Z,4.5
2017-11-23T07:42:50.367Z,4.3
2017-11-23T07:43:50.397Z,4.3
2017-11-23T07:44:50.354Z,4.5
2017-11-23T07:45:50.360Z,4.5
2017-11-23T07:46:50.343Z,4.4
2017-11-23T07:47:50.338Z,4.4
2017-11-23T07:48:50.352Z,4.2
2017-11-23T07:49:50.344Z,4.1
2017-11-23T07:50:50.345Z,4.1
2017-11-23T07:51:50.334Z,4
2017-11-23T07:52:50.375Z,3.7
2017-11-23T07:53:50.354Z,3.6
2017-11-23T07:54:50.368Z,3.6
2017-11-23T07:55:50.347Z,3.6
2017-11-23T07:56:50.342Z,3.7
2017-11-23T07:57:50.349Z,3.6
2017-11-23T07:58:50.407Z,3.3
2017-11-23T07:59:50.338Z,3.1
2017-11-23T08:00:50.338Z,2.9
2017-11-23T08:01:50.342Z,2.8
2017-11-23T08:02:50.357Z,2.7
2017-11-23T08:03:50.382Z,2.6
2017-11-23T08:04:50.342Z,2.4
2017-11-23T08:05:50.347Z,2.1
2017-11-23T08:06:50.347Z,2
2017-11-23T08:07:50.360Z,1.8
2017-11-23T08:08:50.407Z,1.7
2017-11-23T08:09:50.330Z,1.5
2017-11-23T08:10:50.356Z,1.4
2017-11-23T08:11:50.354Z,1.3
2017-11-23T08:12:50.349Z,1.2
2017-11-23T08:13:50.414Z,1.1
2017-11-23T08:14:50.350Z,1
2017-11-23T08:15:50.335Z,0.9
2017-11-23T08:16:50.321Z,0.8
2017-11-23T08:17:50.364Z,0.7
2017-11-23T08:18:50.533Z,0.7
2017-11-23T08:19:50.337Z,0.6
2017-11-23T08:20:50.340Z,0.6
2017-11-23T08:21:50.393Z,0.5
2017-11-23T08:22:50.324Z,0.7
2017-11-23T08:23:50.375Z,0.7
2017-11-23T08:24:50.331Z,0.7
2017-11-23T08:25:50.330Z,0.6
2017-11-23T08:26:50.325Z,0.6
2017-11-23T08:27:50.327Z,0.5
2017-11-23T08:28:50.406Z,0.5
2017-11-23T08:29:50.329Z,0.4
2017-11-23T08:30:50.375Z,0.4
2017-11-23T08:31:50.316Z,0.3
2017-11-23T08:32:50.314Z,0.3
2017-11-23T08:33:50.399Z,0.3
2017-11-23T08:34:50.351Z,0.4
2017-11-23T08:35:50.386Z,0.4
2017-11-23T08:36:50.326Z,0.4
2017-11-23T08:37:50.330Z,0.6
2017-11-23T08:38:50.398Z,0.9
2017-11-23T08:39:50.347Z,0.8
2017-11-23T08:40:50.332Z,0.8
2017-11-23T08:41:50.338Z,0.9
2017-11-23T08:42:50.311Z,0.8
2017-11-23T08:43:50.420Z,0.7
2017-11-23T08:44:50.324Z,0.6
2017-11-23T08:45:50.352Z,0.8
2017-11-23T08:46:50.341Z,1
2017-11-23T08:47:50.333Z,1.1
2017-11-23T08:48:50.422Z,1.2
2017-11-23T08:49:50.337Z,1.2
2017-11-23T08:50:50.362Z,1.3
2017-11-23T08:51:50.320Z,1.2
2017-11-23T08:52:50.333Z,1.1
2017-11-23T08:53:50.378Z,1.2
2017-11-23T08:54:50.338Z,1.2
2017-11-23T08:55:50.328Z,1.4
2017-11-23T08:56:50.320Z,1.5
2017-11-23T08:57:50.319Z,1.4
2017-11-23T08:58:50.408Z,1.4
2017-11-23T08:59:50.996Z,1.4
2017-11-23T09:00:50.332Z,1.4
2017-11-23T09:01:50.333Z,1.5
2017-11-23T09:02:50.319Z,1.6
2017-11-23T09:03:50.403Z,1.5
2017-11-23T09:04:50.328Z,1.8
2017-11-23T09:05:50.337Z,1.8
2017-11-23T09:06:50.356Z,1.7
2017-11-23T09:07:50.322Z,1.7
2017-11-23T09:08:50.396Z,1.7
2017-11-23T09:09:50.338Z,1.9
2017-11-23T09:10:50.325Z,1.7
2017-11-23T09:11:50.322Z,1.6
2017-11-23T09:12:50.338Z,1.6
2017-11-23T09:13:50.390Z,1.6
2017-11-23T09:14:50.332Z,1.5
2017-11-23T09:15:50.322Z,1.6
2017-11-23T09:16:50.329Z,1.7
2017-11-23T09:17:50.321Z,1.7
2017-11-23T09:18:50.378Z,2
2017-11-23T09:19:50.336Z,1.9
2017-11-23T09:20:50.312Z,2
2017-11-23T09:21:50.307Z,2
2017-11-23T09:22:50.337Z,1.8
2017-11-23T09:23:50.371Z,1.8
2017-11-23T09:24:50.327Z,1.7
2017-11-23T09:25:50.327Z,1.6
2017-11-23T09:26:50.333Z,1.7
2017-11-23T09:27:50.299Z,1.5
2017-11-23T09:28:50.378Z,1.5
2017-11-23T09:29:50.335Z,1.5
2017-11-23T09:30:50.347Z,1.5
2017-11-23T09:31:50.336Z,1.4
2017-11-23T09:32:50.315Z,1.5
2017-11-23T09:33:50.410Z,1.6
2017-11-23T09:34:50.325Z,1.4
2017-11-23T09:35:50.318Z,1.4
2017-11-23T09:36:50.385Z,1.4
2017-11-23T09:37:50.318Z,1.5
2017-11-23T09:38:50.395Z,1.6
2017-11-23T09:39:50.334Z,1.8
2017-11-23T09:40:50.307Z,1.8
2017-11-23T09:41:50.341Z,2.2
2017-11-23T09:42:50.370Z,2.3
2017-11-23T09:43:50.377Z,2.5
2017-11-23T09:44:50.330Z,2.8
2017-11-23T09:45:50.329Z,3
2017-11-23T09:46:50.332Z,3.2
2017-11-23T09:47:50.324Z,3.4
2017-11-23T09:48:50.367Z,3.7
2017-11-23T09:49:50.320Z,3.9
2017-11-23T09:50:50.339Z,3.7
2017-11-23T09:51:50.298Z,3.5
2017-11-23T09:52:50.313Z,3.3
2017-11-23T09:53:50.368Z,3.3
2017-11-23T09:54:50.346Z,3.1
2017-11-23T09:55:50.296Z,3
2017-11-23T09:56:50.317Z,3.4
2017-11-23T09:57:50.329Z,3.2
2017-11-23T09:58:50.367Z,3.3
2017-11-23T09:59:50.330Z,3.1
2017-11-23T10:00:50.308Z,2.8
2017-11-23T10:01:50.347Z,2.5
2017-11-23T10:02:50.368Z,2.6
2017-11-23T10:03:50.358Z,2.6
2017-11-23T10:04:50.311Z,2.8
2017-11-23T10:05:50.321Z,3.1
2017-11-23T10:06:50.339Z,3.7
2017-11-23T10:07:50.310Z,3.5
2017-11-23T10:08:50.322Z,3.7
2017-11-23T10:09:50.295Z,3.9
2017-11-23T10:10:50.316Z,3.9
2017-11-23T10:11:50.297Z,4.1
2017-11-23T10:12:50.308Z,4.3
2017-11-23T10:13:50.336Z,4.2
2017-11-23T10:14:50.314Z,4.3
2017-11-23T10:15:50.327Z,4.4
2017-11-23T10:16:50.325Z,4.5
2017-11-23T10:17:50.337Z,4.5
2017-11-23T10:18:50.285Z,4.7
2017-11-23T10:19:50.303Z,5
2017-11-23T10:20:50.318Z,5.1
2017-11-23T10:21:50.290Z,5.5
2017-11-23T10:22:50.337Z,6.1
2017-11-23T10:23:50.325Z,6.2
2017-11-23T10:24:50.320Z,6.1
2017-11-23T10:25:50.304Z,5.9
2017-11-23T10:26:50.309Z,6.1
2017-11-23T10:27:50.342Z,6.1
2017-11-23T10:28:50.297Z,6
2017-11-23T10:29:50.289Z,5.8
2017-11-23T10:30:50.322Z,5.7
2017-11-23T10:31:50.334Z,5.5
2017-11-23T10:32:50.307Z,5.3
2017-11-23T10:33:50.303Z,5.1
2017-11-23T10:34:50.309Z,4.7
2017-11-23T10:35:50.294Z,4.3
2017-11-23T10:36:50.314Z,3.9
2017-11-23T10:37:50.302Z,3.8
2017-11-23T10:38:50.308Z,3.5
2017-11-23T10:39:50.301Z,3.4
2017-11-23T10:40:50.307Z,3.1
2017-11-23T10:41:50.307Z,3.1
2017-11-23T10:42:50.310Z,2.8
2017-11-23T10:43:50.308Z,2.7
2017-11-23T10:44:50.299Z,2.4
2017-11-23T10:45:50.311Z,2.2
2017-11-23T10:46:50.299Z,2
2017-11-23T10:47:50.283Z,1.8
2017-11-23T10:48:50.319Z,1.6
2017-11-23T10:49:50.316Z,1.5
2017-11-23T10:50:50.292Z,1.5
2017-11-23T10:51:50.297Z,1.4
2017-11-23T10:52:50.307Z,1.3
2017-11-23T10:53:50.290Z,1.4
2017-11-23T10:54:50.332Z,1.3
2017-11-23T10:55:50.284Z,1.8
2017-11-23T10:56:50.313Z,1.7
2017-11-23T10:57:50.303Z,1.5
2017-11-23T10:58:50.315Z,1.4
2017-11-23T10:59:50.315Z,1.3
2017-11-23T11:00:50.330Z,1.1
2017-11-23T11:01:50.981Z,1
2017-11-23T11:02:50.282Z,0.9
2017-11-23T11:07:50.276Z,1.5
2017-11-23T11:08:50.310Z,1.4
2017-11-23T11:09:50.333Z,1.5
2017-11-23T11:10:50.307Z,1.4
2017-11-23T11:11:50.273Z,1.2
2017-11-23T11:12:50.336Z,1.1
2017-11-23T11:13:50.340Z,1.1
2017-11-23T11:14:50.385Z,1
2017-11-23T11:15:50.284Z,0.9
2017-11-23T11:16:50.291Z,0.8
2017-11-23T11:17:50.295Z,0.8
2017-11-23T11:18:50.299Z,0.7
2017-11-23T11:19:50.381Z,0.9
2017-11-23T11:20:50.283Z,1.1
2017-11-23T11:21:50.288Z,1.4
2017-11-23T11:22:50.282Z,1.7
2017-11-23T11:23:50.281Z,2
2017-11-23T11:24:50.344Z,2.9
2017-11-23T11:25:50.282Z,2.6
2017-11-23T11:26:50.284Z,2.4
2017-11-23T11:27:50.292Z,2.5
2017-11-23T11:28:50.309Z,2.4
2017-11-23T11:29:50.352Z,2.2
2017-11-23T11:30:50.309Z,2
2017-11-23T11:31:50.326Z,2.5
2017-11-23T11:32:50.302Z,2.3
2017-11-23T11:33:50.301Z,2.3
2017-11-23T11:34:50.380Z,2.5
2017-11-23T11:35:50.306Z,2.7
2017-11-23T11:36:50.297Z,2.6
2017-11-23T11:37:50.270Z,2.6
2017-11-23T11:38:50.286Z,3
2017-11-23T11:39:50.394Z,3.6
2017-11-23T11:40:50.307Z,3.7
2017-11-23T11:41:50.279Z,3.7
2017-11-23T11:42:50.286Z,4
2017-11-23T11:43:50.286Z,3.9
2017-11-23T11:44:50.350Z,4.1
2017-11-23T11:45:50.292Z,3.8
2017-11-23T11:46:50.268Z,3.9
2017-11-23T11:47:50.280Z,3.8
2017-11-23T11:48:50.277Z,4
2017-11-23T11:49:50.340Z,3.8
2017-11-23T11:50:50.296Z,3.7
2017-11-23T11:51:50.281Z,3.5
2017-11-23T11:52:50.306Z,3.4
2017-11-23T11:53:50.269Z,3.1
2017-11-23T11:54:50.339Z,2.8
2017-11-23T11:55:50.278Z,2.9
2017-11-23T11:56:50.297Z,2.8
2017-11-23T11:57:50.295Z,2.7
2017-11-23T11:58:50.281Z,2.7
2017-11-23T11:59:50.337Z,2.7
2017-11-23T12:00:50.305Z,2.7
2017-11-23T12:01:50.275Z,2.6
2017-11-23T12:02:50.310Z,2.9
2017-11-23T12:03:50.294Z,3.4
2017-11-23T12:04:50.351Z,3.5
2017-11-23T12:05:50.278Z,3.5
2017-11-23T12:06:50.271Z,3.3
2017-11-23T12:07:50.293Z,3.1
2017-11-23T12:08:50.288Z,3.1
2017-11-23T12:09:50.291Z,3.2
2017-11-23T12:10:50.279Z,3.5
2017-11-23T12:11:50.306Z,3.3
2017-11-23T12:12:50.299Z,3.1
2017-11-23T12:13:50.259Z,2.9
2017-11-23T12:14:50.296Z,3.1
2017-11-23T12:15:50.273Z,2.9
2017-11-23T12:16:50.316Z,2.8
2017-11-23T12:17:50.297Z,3.3
2017-11-23T12:18:50.296Z,3.6
2017-11-23T12:19:50.283Z,3.9
2017-11-23T12:20:50.294Z,4.4
2017-11-23T12:21:50.263Z,5
2017-11-23T12:22:50.277Z,5.4
2017-11-23T12:23:50.322Z,6
2017-11-23T12:24:50.259Z,6
2017-11-23T12:25:50.278Z,5.9
2017-11-23T12:26:50.275Z,5.7
2017-11-23T12:27:50.265Z,5.8
2017-11-23T12:28:50.280Z,5.8
2017-11-23T12:29:50.286Z,6.4
2017-11-23T12:30:50.279Z,6.2
2017-11-23T12:31:50.275Z,6.9
2017-11-23T12:32:50.281Z,7.6
2017-11-23T12:33:50.292Z,8.2
2017-11-23T12:34:50.314Z,9.3
2017-11-23T12:36:13.713Z,1.2
2017-11-23T12:37:13.741Z,2.9
2017-11-23T12:38:13.713Z,3.9
2017-11-23T12:39:13.722Z,5.9
2017-11-23T12:40:13.774Z,7.6
2017-11-23T12:41:13.732Z,8.9
2017-11-23T12:42:13.718Z,8.9
2017-11-23T12:43:13.761Z,9.5
2017-11-23T12:44:13.738Z,10
2017-11-23T12:45:13.827Z,11.5
2017-11-23T12:46:14.527Z,12.4
2017-11-23T12:47:13.746Z,13
2017-11-23T12:48:13.719Z,13.7
2017-11-23T12:49:13.748Z,14.3
2017-11-23T12:50:13.780Z,15.9
2017-11-23T12:51:13.758Z,15.2
2017-11-23T12:52:14.365Z,16.1
2017-11-23T12:53:13.726Z,17
2017-11-23T12:54:13.709Z,18.8
2017-11-23T12:55:13.779Z,19.8
2017-11-23T12:56:13.720Z,20.5
2017-11-23T12:57:13.713Z,21.4
2017-11-23T12:58:13.715Z,21.4
2017-11-23T12:59:13.710Z,21.8
2017-11-23T13:00:13.763Z,21.2
2017-11-23T13:01:13.744Z,21.9
2017-11-23T13:02:13.724Z,22.4
2017-11-23T13:03:13.734Z,22.1
2017-11-23T13:04:13.742Z,22.5
2017-11-23T13:05:13.789Z,21.7
2017-11-23T13:06:13.727Z,21.6
2017-11-23T13:07:13.736Z,20.8
2017-11-23T13:08:13.721Z,20.7
2017-11-23T13:09:13.711Z,20.5
2017-11-23T13:10:13.808Z,21.1
2017-11-23T13:11:13.717Z,21.4
2017-11-23T13:12:13.749Z,21.5
2017-11-23T13:13:13.742Z,21.6
2017-11-23T13:14:13.743Z,22.4
2017-11-23T13:15:13.774Z,22.5
2017-11-23T13:16:13.726Z,23.1
2017-11-23T13:17:13.755Z,23.8
2017-11-23T13:18:13.737Z,24
2017-11-23T13:19:13.706Z,23.9
2017-11-23T13:20:13.769Z,23.1
2017-11-23T13:21:13.718Z,22.1
2017-11-23T13:22:13.716Z,21.3
2017-11-23T13:23:13.741Z,21.7
2017-11-23T13:24:13.731Z,21.5
2017-11-23T13:25:13.768Z,21.6
2017-11-23T13:26:13.748Z,21.3
2017-11-23T13:27:13.760Z,21.4
2017-11-23T13:28:13.710Z,21
2017-11-23T13:29:13.730Z,20.5
2017-11-23T13:30:13.771Z,21
2017-11-23T13:31:13.865Z,21.1
2017-11-23T13:32:13.731Z,21.3
2017-11-23T13:33:13.712Z,21.4
2017-11-23T13:34:13.726Z,22.1
2017-11-23T13:35:13.755Z,22.6
2017-11-23T13:36:13.709Z,22.6
2017-11-23T13:37:13.731Z,22.4
2017-11-23T13:38:13.716Z,22.5
2017-11-23T13:39:13.737Z,23
2017-11-23T13:40:13.783Z,23.5
2017-11-23T13:41:13.707Z,24.4
2017-11-23T13:42:13.701Z,24.7
2017-11-23T13:43:13.730Z,24
2017-11-23T13:44:13.715Z,23.9
2017-11-23T13:45:13.768Z,23.8
2017-11-23T13:46:13.706Z,23.6
2017-11-23T13:47:13.718Z,24.6
2017-11-23T13:48:13.740Z,25.5
2017-11-23T13:49:13.712Z,26.4
2017-11-23T13:50:13.816Z,27.2
2017-11-23T13:51:13.697Z,27
2017-11-23T13:52:13.733Z,26.6
2017-11-23T13:53:13.718Z,26.6
2017-11-23T13:54:13.695Z,27.3
2017-11-23T13:55:13.760Z,27.6
2017-11-23T13:56:14.743Z,28.1
2017-11-23T13:57:13.708Z,28.4
2017-11-23T13:58:13.717Z,29
2017-11-23T13:59:13.710Z,29.2
2017-11-23T14:00:13.752Z,29.1
2017-11-23T14:01:13.722Z,28.8
2017-11-23T14:02:13.687Z,29.2
2017-11-23T14:03:15.483Z,28.8
2017-11-23T14:04:14.927Z,29.3